LRI4LW FAGG-FACT
Flight info
| Callsign | LRI4LW |
|---|---|
| Flight time | 0h 35m |
| Altitude | 28000 |
| Route | APGUP DCT ETBUL UQ49 ESRUK UQ51 GETEN GETEN1C |
| Aircraft | A320/M-SDE3FGHIRWY/LB1 |
Departure
| Time | 2026-04-14 07:59 |
|---|---|
| Airport | George Airport (FAGG) |
Arrival
| Time | 2026-04-14 08:35 |
|---|---|
| Airport | Cape Town International Airport (FACT) |
| Time | Latitude | Longitude | Altitude | Speed | Heading |
|---|---|---|---|---|---|
| 2026-04-14 07:41 | -34.00234 | 22.38162 | 639 ft | 0 kts | 39° |
| 2026-04-14 07:43 | -34.00235 | 22.38161 | 640 ft | 0 kts | 39° |
| 2026-04-14 07:50 | -34.00232 | 22.38164 | 639 ft | 1 kts | 39° |
| 2026-04-14 07:50 | -34.00233 | 22.38163 | 639 ft | 2 kts | 39° |
| 2026-04-14 07:50 | -34.00245 | 22.38151 | 641 ft | 2 kts | 39° |
| 2026-04-14 07:50 | -34.00257 | 22.38140 | 645 ft | 2 kts | 44° |
| 2026-04-14 07:51 | -34.00265 | 22.38123 | 642 ft | 2 kts | 111° |
| 2026-04-14 07:51 | -34.00264 | 22.38120 | 642 ft | 0 kts | 119° |
| 2026-04-14 07:56 | -34.00286 | 22.38154 | 643 ft | 10 kts | 141° |
| 2026-04-14 07:56 | -34.00328 | 22.38233 | 646 ft | 14 kts | 93° |
| 2026-04-14 07:56 | -34.00323 | 22.38392 | 645 ft | 23 kts | 88° |
| 2026-04-14 07:56 | -34.00314 | 22.38612 | 646 ft | 28 kts | 90° |
| 2026-04-14 07:57 | -34.00314 | 22.38677 | 647 ft | 3 kts | 89° |
| 2026-04-14 07:57 | -34.00313 | 22.38730 | 647 ft | 10 kts | 89° |
| 2026-04-14 07:57 | -34.00312 | 22.38847 | 649 ft | 17 kts | 97° |
| 2026-04-14 07:57 | -34.00409 | 22.38919 | 656 ft | 17 kts | 180° |
| 2026-04-14 07:58 | -34.00437 | 22.38919 | 656 ft | 7 kts | 179° |
| 2026-04-14 07:58 | -34.00508 | 22.38921 | 657 ft | 9 kts | 179° |
| 2026-04-14 07:58 | -34.00521 | 22.38884 | 657 ft | 0 kts | 269° |
| 2026-04-14 07:58 | -34.00522 | 22.38829 | 657 ft | 35 kts | 269° |
| 2026-04-14 07:59 | -34.00535 | 22.38200 | 652 ft | 110 kts | 269° |
| 2026-04-14 07:59 | -34.00576 | 22.37050 | 696 ft | 159 kts | 269° |
| 2026-04-14 07:59 | -34.00644 | 22.35749 | 1379 ft | 152 kts | 269° |
| 2026-04-14 07:59 | -34.00733 | 22.34485 | 2120 ft | 150 kts | 269° |
| 2026-04-14 08:00 | -34.00844 | 22.33194 | 2637 ft | 164 kts | 269° |
| 2026-04-14 08:00 | -34.00973 | 22.31743 | 2905 ft | 185 kts | 270° |
| 2026-04-14 08:00 | -34.01006 | 22.30098 | 3160 ft | 208 kts | 273° |
| 2026-04-14 08:00 | -34.00991 | 22.28243 | 3487 ft | 234 kts | 273° |
| 2026-04-14 08:01 | -34.00965 | 22.26202 | 4084 ft | 249 kts | 273° |
| 2026-04-14 08:01 | -34.00939 | 22.24133 | 5061 ft | 250 kts | 272° |
| 2026-04-14 08:01 | -34.00916 | 22.21988 | 6004 ft | 256 kts | 271° |
| 2026-04-14 08:01 | -34.00897 | 22.19844 | 6802 ft | 262 kts | 271° |
| 2026-04-14 08:02 | -34.00879 | 22.17597 | 7620 ft | 268 kts | 271° |
| 2026-04-14 08:02 | -34.00859 | 22.15324 | 8424 ft | 275 kts | 271° |
| 2026-04-14 08:02 | -34.00839 | 22.13015 | 9216 ft | 281 kts | 271° |
| 2026-04-14 08:02 | -34.00815 | 22.10635 | 9980 ft | 288 kts | 272° |
| 2026-04-14 08:03 | -34.00787 | 22.08117 | 10289 ft | 312 kts | 272° |
| 2026-04-14 08:03 | -34.00755 | 22.05411 | 10539 ft | 335 kts | 272° |
| 2026-04-14 08:03 | -34.00722 | 22.02545 | 11021 ft | 346 kts | 272° |
| 2026-04-14 08:03 | -34.00695 | 21.99620 | 11729 ft | 351 kts | 271° |
| 2026-04-14 08:04 | -34.00670 | 21.96665 | 12447 ft | 354 kts | 271° |
| 2026-04-14 08:04 | -34.00643 | 21.93679 | 13165 ft | 358 kts | 271° |
| 2026-04-14 08:04 | -34.00613 | 21.90670 | 13831 ft | 361 kts | 271° |
| 2026-04-14 08:04 | -34.00583 | 21.87632 | 14434 ft | 364 kts | 271° |
| 2026-04-14 08:05 | -34.00549 | 21.84564 | 15037 ft | 367 kts | 271° |
| 2026-04-14 08:05 | -34.00512 | 21.81472 | 15623 ft | 371 kts | 271° |
| 2026-04-14 08:05 | -34.00472 | 21.78356 | 16209 ft | 374 kts | 271° |
| 2026-04-14 08:05 | -34.00432 | 21.75211 | 16809 ft | 377 kts | 272° |
| 2026-04-14 08:06 | -34.00392 | 21.72048 | 17431 ft | 379 kts | 272° |
| 2026-04-14 08:06 | -34.00351 | 21.68857 | 18046 ft | 382 kts | 272° |
| 2026-04-14 08:06 | -34.00309 | 21.65648 | 18567 ft | 385 kts | 272° |
| 2026-04-14 08:06 | -34.00264 | 21.62401 | 19063 ft | 388 kts | 272° |
| 2026-04-14 08:07 | -34.00218 | 21.59131 | 19556 ft | 392 kts | 272° |
| 2026-04-14 08:07 | -34.00169 | 21.55836 | 20103 ft | 395 kts | 272° |
| 2026-04-14 08:07 | -34.00121 | 21.52514 | 20632 ft | 397 kts | 272° |
| 2026-04-14 08:07 | -34.00074 | 21.49175 | 21174 ft | 400 kts | 272° |
| 2026-04-14 08:08 | -34.00026 | 21.45806 | 21671 ft | 403 kts | 272° |
| 2026-04-14 08:08 | -33.99976 | 21.42416 | 22148 ft | 406 kts | 272° |
| 2026-04-14 08:08 | -33.99925 | 21.39000 | 22609 ft | 409 kts | 272° |
| 2026-04-14 08:08 | -33.99891 | 21.36723 | 22921 ft | 411 kts | 272° |
| 2026-04-14 08:09 | -33.99842 | 21.33266 | 23396 ft | 413 kts | 272° |
| 2026-04-14 08:09 | -33.99795 | 21.29791 | 23778 ft | 416 kts | 272° |
| 2026-04-14 08:09 | -33.99749 | 21.26295 | 24159 ft | 419 kts | 272° |
| 2026-04-14 08:09 | -33.99705 | 21.22776 | 24528 ft | 421 kts | 272° |
| 2026-04-14 08:10 | -33.99661 | 21.19238 | 24905 ft | 423 kts | 272° |
| 2026-04-14 08:10 | -33.99615 | 21.15687 | 25287 ft | 425 kts | 272° |
| 2026-04-14 08:10 | -33.99563 | 21.12120 | 25656 ft | 427 kts | 272° |
| 2026-04-14 08:10 | -33.99507 | 21.08527 | 26039 ft | 429 kts | 272° |
| 2026-04-14 08:11 | -33.99451 | 21.04932 | 26413 ft | 431 kts | 272° |
| 2026-04-14 08:11 | -33.99394 | 21.01317 | 26773 ft | 433 kts | 272° |
| 2026-04-14 08:11 | -33.99338 | 20.97681 | 27115 ft | 435 kts | 272° |
| 2026-04-14 08:11 | -33.99284 | 20.94024 | 27456 ft | 437 kts | 272° |
| 2026-04-14 08:12 | -33.99224 | 20.90353 | 27765 ft | 439 kts | 272° |
| 2026-04-14 08:12 | -33.99161 | 20.86673 | 27853 ft | 438 kts | 272° |
| 2026-04-14 08:12 | -33.99099 | 20.83016 | 27869 ft | 436 kts | 272° |
| 2026-04-14 08:12 | -33.99043 | 20.79359 | 27872 ft | 435 kts | 271° |
| 2026-04-14 08:13 | -33.99250 | 20.75724 | 27869 ft | 435 kts | 267° |
| 2026-04-14 08:13 | -33.99538 | 20.72097 | 27867 ft | 434 kts | 266° |
| 2026-04-14 08:13 | -33.99840 | 20.68477 | 27868 ft | 434 kts | 266° |
| 2026-04-14 08:13 | -34.00150 | 20.64856 | 27865 ft | 434 kts | 266° |
| 2026-04-14 08:14 | -34.00462 | 20.61240 | 27868 ft | 434 kts | 266° |
| 2026-04-14 08:14 | -34.00771 | 20.57624 | 27868 ft | 434 kts | 266° |
| 2026-04-14 08:14 | -34.01076 | 20.54000 | 27868 ft | 434 kts | 266° |
| 2026-04-14 08:14 | -34.01377 | 20.50386 | 27867 ft | 434 kts | 266° |
| 2026-04-14 08:15 | -34.01674 | 20.46768 | 27864 ft | 434 kts | 267° |
| 2026-04-14 08:15 | -34.01969 | 20.43147 | 27877 ft | 433 kts | 268° |
| 2026-04-14 08:15 | -34.02260 | 20.39541 | 27880 ft | 432 kts | 268° |
| 2026-04-14 08:15 | -34.02549 | 20.35931 | 27880 ft | 432 kts | 268° |
| 2026-04-14 08:16 | -34.02835 | 20.32328 | 27879 ft | 431 kts | 268° |
| 2026-04-14 08:16 | -34.03118 | 20.28777 | 27706 ft | 431 kts | 267° |
| 2026-04-14 08:16 | -34.03404 | 20.25177 | 27453 ft | 432 kts | 267° |
| 2026-04-14 08:16 | -34.03689 | 20.21569 | 27202 ft | 432 kts | 267° |
| 2026-04-14 08:17 | -34.03971 | 20.17962 | 26950 ft | 432 kts | 267° |
| 2026-04-14 08:17 | -34.04253 | 20.14371 | 26506 ft | 427 kts | 267° |
| 2026-04-14 08:17 | -34.04534 | 20.10817 | 25852 ft | 423 kts | 268° |
| 2026-04-14 08:17 | -34.04810 | 20.07303 | 25228 ft | 419 kts | 268° |
| 2026-04-14 08:18 | -34.05084 | 20.03819 | 24600 ft | 416 kts | 268° |
| 2026-04-14 08:18 | -34.05355 | 20.00349 | 23982 ft | 413 kts | 268° |
| 2026-04-14 08:18 | -34.05623 | 19.96914 | 23363 ft | 410 kts | 268° |
| 2026-04-14 08:18 | -34.05887 | 19.93500 | 22712 ft | 407 kts | 268° |
| 2026-04-14 08:19 | -34.06148 | 19.90122 | 22159 ft | 402 kts | 268° |
| 2026-04-14 08:19 | -34.06405 | 19.86787 | 21619 ft | 397 kts | 268° |
| 2026-04-14 08:19 | -34.06656 | 19.83532 | 21122 ft | 392 kts | 267° |
| 2026-04-14 08:19 | -34.06905 | 19.80269 | 20869 ft | 391 kts | 267° |
| 2026-04-14 08:20 | -34.07154 | 19.77002 | 20853 ft | 390 kts | 268° |
| 2026-04-14 08:20 | -34.07402 | 19.73745 | 20455 ft | 390 kts | 268° |
| 2026-04-14 08:20 | -34.07649 | 19.70440 | 19466 ft | 400 kts | 268° |
| 2026-04-14 08:20 | -34.07894 | 19.67096 | 18752 ft | 400 kts | 267° |
| 2026-04-14 08:21 | -34.08139 | 19.63776 | 18158 ft | 398 kts | 267° |
| 2026-04-14 08:21 | -34.08386 | 19.60452 | 17604 ft | 393 kts | 267° |
| 2026-04-14 08:21 | -34.08625 | 19.57188 | 17084 ft | 388 kts | 267° |
| 2026-04-14 08:21 | -34.08861 | 19.53958 | 16572 ft | 384 kts | 267° |
| 2026-04-14 08:22 | -34.09094 | 19.50765 | 16046 ft | 379 kts | 267° |
| 2026-04-14 08:22 | -34.09327 | 19.47613 | 15526 ft | 376 kts | 267° |
| 2026-04-14 08:22 | -34.09557 | 19.44481 | 15004 ft | 373 kts | 268° |
| 2026-04-14 08:22 | -34.09783 | 19.41377 | 14466 ft | 371 kts | 268° |
| 2026-04-14 08:23 | -34.10010 | 19.38289 | 13945 ft | 368 kts | 268° |
| 2026-04-14 08:23 | -34.10233 | 19.35224 | 13387 ft | 366 kts | 268° |
| 2026-04-14 08:23 | -34.10453 | 19.32178 | 12837 ft | 362 kts | 268° |
| 2026-04-14 08:23 | -34.10668 | 19.29170 | 12303 ft | 357 kts | 268° |
| 2026-04-14 08:24 | -34.10881 | 19.26206 | 11769 ft | 352 kts | 268° |
| 2026-04-14 08:24 | -34.11092 | 19.23283 | 11231 ft | 348 kts | 268° |
| 2026-04-14 08:24 | -34.11298 | 19.20398 | 10701 ft | 342 kts | 269° |
| 2026-04-14 08:24 | -34.11499 | 19.17577 | 10471 ft | 330 kts | 269° |
| 2026-04-14 08:25 | -34.11691 | 19.14888 | 10349 ft | 314 kts | 269° |
| 2026-04-14 08:25 | -34.11875 | 19.12320 | 10233 ft | 300 kts | 269° |
| 2026-04-14 08:25 | -34.12051 | 19.09894 | 10136 ft | 288 kts | 270° |
| 2026-04-14 08:25 | -34.12222 | 19.07534 | 10019 ft | 277 kts | 270° |
| 2026-04-14 08:26 | -34.12385 | 19.05230 | 9829 ft | 268 kts | 270° |
| 2026-04-14 08:26 | -34.12537 | 19.03010 | 9585 ft | 264 kts | 270° |
| 2026-04-14 08:26 | -34.12682 | 19.00846 | 9313 ft | 261 kts | 271° |
| 2026-04-14 08:26 | -34.12825 | 18.98662 | 9004 ft | 260 kts | 271° |
| 2026-04-14 08:27 | -34.12971 | 18.96489 | 8667 ft | 260 kts | 271° |
| 2026-04-14 08:27 | -34.13120 | 18.94311 | 8320 ft | 259 kts | 271° |
| 2026-04-14 08:27 | -34.13269 | 18.92137 | 7969 ft | 259 kts | 271° |
| 2026-04-14 08:27 | -34.13417 | 18.89973 | 7611 ft | 259 kts | 271° |
| 2026-04-14 08:28 | -34.13562 | 18.87805 | 7276 ft | 259 kts | 271° |
| 2026-04-14 08:28 | -34.13708 | 18.85641 | 6924 ft | 259 kts | 271° |
| 2026-04-14 08:28 | -34.13856 | 18.83479 | 6575 ft | 258 kts | 271° |
| 2026-04-14 08:28 | -34.14008 | 18.81312 | 6225 ft | 258 kts | 271° |
| 2026-04-14 08:29 | -34.14293 | 18.79165 | 5780 ft | 263 kts | 262° |
| 2026-04-14 08:29 | -34.14767 | 18.76994 | 5075 ft | 269 kts | 260° |
| 2026-04-14 08:29 | -34.15246 | 18.74833 | 4460 ft | 264 kts | 259° |
| 2026-04-14 08:29 | -34.15710 | 18.72763 | 4187 ft | 245 kts | 259° |
| 2026-04-14 08:30 | -34.16138 | 18.70866 | 4051 ft | 224 kts | 259° |
| 2026-04-14 08:30 | -34.16427 | 18.69122 | 3937 ft | 199 kts | 275° |
| 2026-04-14 08:30 | -34.16131 | 18.67589 | 3856 ft | 183 kts | 300° |
| 2026-04-14 08:30 | -34.15337 | 18.66406 | 3658 ft | 184 kts | 322° |
| 2026-04-14 08:31 | -34.14173 | 18.65763 | 3389 ft | 186 kts | 343° |
| 2026-04-14 08:31 | -34.11686 | 18.64995 | 2887 ft | 182 kts | 342° |
| 2026-04-14 08:31 | -34.10467 | 18.64610 | 2603 ft | 179 kts | 341° |
| 2026-04-14 08:32 | -34.09294 | 18.64237 | 2353 ft | 169 kts | 341° |
| 2026-04-14 08:32 | -34.08186 | 18.63886 | 2116 ft | 160 kts | 341° |
| 2026-04-14 08:32 | -34.07142 | 18.63554 | 1899 ft | 151 kts | 341° |
| 2026-04-14 08:32 | -34.06154 | 18.63239 | 1702 ft | 143 kts | 341° |
| 2026-04-14 08:33 | -34.05208 | 18.62937 | 1525 ft | 140 kts | 342° |
| 2026-04-14 08:33 | -34.04269 | 18.62635 | 1346 ft | 139 kts | 342° |
| 2026-04-14 08:33 | -34.03336 | 18.62335 | 1160 ft | 139 kts | 342° |
| 2026-04-14 08:33 | -34.02406 | 18.62039 | 980 ft | 137 kts | 343° |
| 2026-04-14 08:34 | -34.01490 | 18.61750 | 798 ft | 136 kts | 342° |
| 2026-04-14 08:34 | -34.00588 | 18.61466 | 618 ft | 132 kts | 343° |
| 2026-04-14 08:34 | -33.99705 | 18.61188 | 424 ft | 131 kts | 345° |
| 2026-04-14 08:34 | -33.98833 | 18.60905 | 228 ft | 130 kts | 344° |
| 2026-04-14 08:35 | -33.97999 | 18.60638 | 158 ft | 112 kts | 344° |
| 2026-04-14 08:35 | -33.97484 | 18.60475 | 154 ft | 33 kts | 345° |
| 2026-04-14 08:35 | -33.97386 | 18.60444 | 155 ft | 15 kts | 345° |
| 2026-04-14 08:35 | -33.97244 | 18.60397 | 157 ft | 24 kts | 344° |
| 2026-04-14 08:36 | -33.97114 | 18.60266 | 163 ft | 22 kts | 288° |
| 2026-04-14 08:36 | -33.97077 | 18.60112 | 167 ft | 13 kts | 285° |
| 2026-04-14 08:36 | -33.97050 | 18.59981 | 167 ft | 14 kts | 267° |
| 2026-04-14 08:36 | -33.97071 | 18.59875 | 167 ft | 8 kts | 255° |
| 2026-04-14 08:37 | -33.97074 | 18.59859 | 167 ft | 0 kts | 254° |